Time;durP1;ratioP1;P1;durP2;ratioP2;P2;SDS_P1;SDS_P2;PMS_P1;PMS_P2;Temp;Humidity;BMP_temperature;BMP_pressure;BME280_temperature;BME280_humidity;BME280_pressure;Samples;Min_cycle;Max_cycle;Signal;HPM_P1;HPM_P2
2021/05/17 00:02:07;;;;;;;1.10;0.50;;;9.90;99.90;;;;;;5073382;28;20480;-75
2021/05/17 00:04:35;;;;;;;0.60;0.50;;;9.90;99.90;;;;;;5073442;28;20444;-75
2021/05/17 00:07:03;;;;;;;1.17;0.60;;;9.90;99.90;;;;;;5073419;28;20839;-74
2021/05/17 00:09:30;;;;;;;0.70;0.40;;;9.90;99.90;;;;;;5072969;28;20484;-74
2021/05/17 00:11:56;;;;;;;1.30;1.20;;;9.90;99.90;;;;;;5073037;28;20444;-74
2021/05/17 00:14:26;;;;;;;0.73;0.50;;;9.90;99.90;;;;;;5073035;28;20452;-74
2021/05/17 00:16:53;;;;;;;0.40;0.40;;;9.80;99.90;;;;;;5073302;28;20448;-74
2021/05/17 00:19:20;;;;;;;0.70;0.60;;;9.90;99.90;;;;;;5073241;28;20543;-75
2021/05/17 00:21:47;;;;;;;0.63;0.50;;;9.90;99.90;;;;;;5072905;28;20489;-75
2021/05/17 00:24:15;;;;;;;0.40;0.40;;;9.90;99.90;;;;;;5073215;28;20530;-75
2021/05/17 00:26:42;;;;;;;1.23;0.40;;;9.90;99.90;;;;;;5073235;28;20451;-75
2021/05/17 00:29:09;;;;;;;1.00;0.50;;;9.90;99.90;;;;;;5072755;28;20972;-74
2021/05/17 00:31:37;;;;;;;3.13;0.40;;;10.00;99.90;;;;;;5073134;28;20803;-75
2021/05/17 00:34:04;;;;;;;0.50;0.50;;;10.00;99.90;;;;;;5073122;28;20445;-75
2021/05/17 00:36:31;;;;;;;0.50;0.50;;;9.90;99.90;;;;;;5073152;28;20436;-75
2021/05/17 00:38:58;;;;;;;1.87;0.40;;;9.90;99.90;;;;;;5073004;28;20465;-74
2021/05/17 00:41:25;;;;;;;1.30;0.57;;;9.90;99.90;;;;;;5073033;28;20476;-75
2021/05/17 00:43:53;;;;;;;0.70;0.40;;;9.90;99.90;;;;;;5073063;28;20445;-75
2021/05/17 00:46:20;;;;;;;1.17;0.40;;;9.90;99.90;;;;;;5072689;28;20858;-75
2021/05/17 00:48:48;;;;;;;5.73;0.67;;;9.90;99.90;;;;;;5072946;28;20559;-75
2021/05/17 00:51:15;;;;;;;1.07;0.50;;;9.90;99.90;;;;;;5073007;28;20859;-74
2021/05/17 00:53:42;;;;;;;0.40;0.40;;;9.90;99.90;;;;;;5073031;28;20448;-74
2021/05/17 00:56:08;;;;;;;0.57;0.57;;;9.90;99.90;;;;;;5072879;28;20448;-75
2021/05/17 00:58:35;;;;;;;0.50;0.50;;;10.00;99.90;;;;;;5072853;28;20469;-75
2021/05/17 01:01:03;;;;;;;0.40;0.40;;;9.90;99.90;;;;;;5072803;28;20476;-75
2021/05/17 01:03:29;;;;;;;0.67;0.50;;;9.90;99.90;;;;;;5072508;28;20448;-75
2021/05/17 01:05:57;;;;;;;0.80;0.50;;;9.90;99.90;;;;;;5072496;28;20970;-75
2021/05/17 01:08:25;;;;;;;0.40;0.40;;;9.90;99.90;;;;;;5072419;28;20833;-74
2021/05/17 01:10:56;;;;;;;0.70;0.50;;;9.90;99.90;;;;;;5072824;28;20437;-75
2021/05/17 01:13:23;;;;;;;0.60;0.40;;;10.00;99.90;;;;;;5072801;28;20433;-75
2021/05/17 01:15:49;;;;;;;1.17;0.50;;;9.90;99.90;;;;;;5072690;28;20441;-75
2021/05/17 01:18:16;;;;;;;0.40;0.40;;;9.90;99.90;;;;;;5072622;28;20460;-74
2021/05/17 01:20:45;;;;;;;0.90;0.50;;;9.90;99.90;;;;;;5072624;28;20542;-75
2021/05/17 01:23:32;;;;;;;2.00;0.40;;;9.90;99.90;;;;;;5072650;28;20449;-75
2021/05/17 01:26:00;;;;;;;0.80;0.50;;;9.90;99.90;;;;;;5073239;28;20433;-75
2021/05/17 01:28:29;;;;;;;0.40;0.40;;;9.90;99.90;;;;;;5072564;28;20467;-75
2021/05/17 01:30:59;;;;;;;0.60;0.40;;;9.90;99.90;;;;;;5072259;28;20451;-75
2021/05/17 01:33:31;;;;;;;0.43;0.43;;;9.90;99.90;;;;;;5074836;28;20421;-75
2021/05/17 01:35:58;;;;;;;3.43;0.50;;;9.90;99.90;;;;;;5076106;28;20433;-75
2021/05/17 01:38:26;;;;;;;0.83;0.50;;;9.90;99.90;;;;;;5075953;28;20496;-75
2021/05/17 01:40:54;;;;;;;0.40;0.40;;;9.90;99.90;;;;;;5075912;28;20479;-75
2021/05/17 01:43:22;;;;;;;0.47;0.47;;;9.90;99.90;;;;;;5075980;28;20447;-75
2021/05/17 01:45:49;;;;;;;2.20;0.50;;;10.00;99.90;;;;;;5075924;28;20524;-74
2021/05/17 01:48:24;;;;;;;0.50;0.43;;;10.00;99.90;;;;;;5075717;28;20464;-74
2021/05/17 01:50:50;;;;;;;2.90;0.53;;;10.00;99.90;;;;;;5075849;28;20448;-75
2021/05/17 01:53:18;;;;;;;0.43;0.43;;;10.00;99.90;;;;;;5075482;28;20441;-75
2021/05/17 01:55:47;;;;;;;1.03;0.40;;;9.90;99.90;;;;;;5075734;28;20448;-74
2021/05/17 01:58:20;;;;;;;0.50;0.47;;;9.90;99.90;;;;;;5075637;28;20453;-74
2021/05/17 02:00:46;;;;;;;1.60;0.60;;;9.90;99.90;;;;;;5075673;28;20506;-74
2021/05/17 02:03:13;;;;;;;2.83;0.60;;;9.80;99.90;;;;;;5075304;28;20449;-75
2021/05/17 02:05:39;;;;;;;0.40;0.40;;;9.70;99.90;;;;;;5075558;28;20452;-75
2021/05/17 02:08:10;;;;;;;0.50;0.50;;;9.80;99.90;;;;;;5075416;28;20445;-75
2021/05/17 02:10:37;;;;;;;0.57;0.50;;;9.70;99.90;;;;;;5074950;28;20995;-75
2021/05/17 02:13:04;;;;;;;1.60;0.50;;;9.70;99.90;;;;;;5075426;28;20449;-75
2021/05/17 02:15:31;;;;;;;0.73;0.40;;;9.60;99.90;;;;;;5075374;28;20444;-75
2021/05/17 02:18:03;;;;;;;0.50;0.50;;;9.60;99.90;;;;;;5075292;28;20815;-75
2021/05/17 02:20:31;;;;;;;0.90;0.40;;;9.60;99.90;;;;;;5074896;28;20457;-75
2021/05/17 02:22:58;;;;;;;0.60;0.50;;;9.50;99.90;;;;;;5074908;28;20488;-75
2021/05/17 02:25:25;;;;;;;1.23;0.60;;;9.40;99.90;;;;;;5074962;28;20441;-75
2021/05/17 02:27:52;;;;;;;0.50;0.50;;;9.40;99.90;;;;;;5075541;28;20818;-75
2021/05/17 02:30:20;;;;;;;1.03;0.50;;;9.40;99.90;;;;;;5075018;28;20464;-75
2021/05/17 02:32:47;;;;;;;1.77;0.50;;;9.40;99.90;;;;;;5075026;28;20460;-75
2021/05/17 02:35:14;;;;;;;1.93;0.53;;;9.30;99.90;;;;;;5074969;28;20461;-75
2021/05/17 02:37:41;;;;;;;0.70;0.40;;;9.30;99.90;;;;;;5074988;28;20448;-75
2021/05/17 02:40:08;;;;;;;0.97;0.50;;;9.40;99.90;;;;;;5074506;28;20466;-75
2021/05/17 02:42:36;;;;;;;0.60;0.50;;;9.40;99.90;;;;;;5074786;28;20493;-75
2021/05/17 02:45:04;;;;;;;1.23;0.50;;;9.30;99.90;;;;;;5074663;28;20817;-75
2021/05/17 02:47:34;;;;;;;0.50;0.40;;;9.30;99.90;;;;;;5075189;28;20456;-74
2021/05/17 02:50:00;;;;;;;1.53;0.50;;;9.30;99.90;;;;;;5074601;28;20583;-75
2021/05/17 02:52:30;;;;;;;1.33;0.40;;;9.30;99.90;;;;;;5074624;28;20445;-75
2021/05/17 02:55:03;;;;;;;0.40;0.40;;;9.30;99.90;;;;;;5074535;28;20487;-75
2021/05/17 02:57:40;;;;;;;1.33;0.40;;;9.30;99.90;;;;;;5074550;28;20425;-75
2021/05/17 03:00:25;;;;;;;0.60;0.50;;;9.30;99.90;;;;;;5074441;28;20476;-75
2021/05/17 03:03:08;;;;;;;1.17;0.50;;;9.30;99.90;;;;;;5074424;28;20425;-75
2021/05/17 03:05:36;;;;;;;3.53;0.53;;;9.40;99.90;;;;;;5074422;28;20429;-75
2021/05/17 03:08:06;;;;;;;0.50;0.40;;;9.40;99.90;;;;;;5074133;28;20448;-75
2021/05/17 03:10:34;;;;;;;1.27;0.40;;;9.40;99.90;;;;;;5073968;28;20485;-75
2021/05/17 03:13:10;;;;;;;0.60;0.53;;;9.40;99.90;;;;;;5074228;28;20452;-75
2021/05/17 03:15:37;;;;;;;0.67;0.43;;;9.40;99.90;;;;;;5074195;28;20425;-75
2021/05/17 03:18:05;;;;;;;0.50;0.50;;;9.40;99.90;;;;;;5073921;28;20456;-75
2021/05/17 03:20:32;;;;;;;6.23;0.53;;;9.30;99.90;;;;;;5073998;28;20452;-75
2021/05/17 03:23:01;;;;;;;4.30;0.93;;;9.30;99.90;;;;;;5073992;28;20786;-75
2021/05/17 03:25:32;;;;;;;0.40;0.40;;;9.30;99.90;;;;;;5073947;28;20453;-75
2021/05/17 03:27:58;;;;;;;1.13;0.40;;;9.30;99.90;;;;;;5073899;28;20428;-75
2021/05/17 03:30:25;;;;;;;0.67;0.43;;;9.20;99.90;;;;;;5073875;28;20441;-75
2021/05/17 03:32:51;;;;;;;0.40;0.40;;;9.20;99.90;;;;;;5073748;28;20448;-75
2021/05/17 03:35:19;;;;;;;0.60;0.50;;;9.20;99.90;;;;;;5073469;28;20445;-75
2021/05/17 03:37:47;;;;;;;0.90;0.50;;;9.20;99.90;;;;;;5073721;28;20460;-75
2021/05/17 03:40:15;;;;;;;0.43;0.43;;;9.20;99.90;;;;;;5073691;28;20473;-75
2021/05/17 03:42:42;;;;;;;0.70;0.43;;;9.10;99.90;;;;;;5073631;28;20613;-75
2021/05/17 03:45:10;;;;;;;1.13;0.50;;;9.10;99.90;;;;;;5073658;28;20459;-75
2021/05/17 03:47:36;;;;;;;0.90;0.40;;;9.10;99.90;;;;;;5073340;28;20486;-75
2021/05/17 03:50:04;;;;;;;0.70;0.40;;;9.10;99.90;;;;;;5073287;28;20838;-75
2021/05/17 03:52:31;;;;;;;1.90;0.50;;;9.00;99.90;;;;;;5073582;28;20462;-75
2021/05/17 03:54:57;;;;;;;0.40;0.40;;;9.00;99.90;;;;;;5073094;28;20445;-75
2021/05/17 03:57:24;;;;;;;0.90;0.50;;;9.10;99.90;;;;;;5073208;28;20452;-75
2021/05/17 03:59:50;;;;;;;1.30;0.70;;;9.10;99.90;;;;;;5073422;28;20468;-75
2021/05/17 04:02:18;;;;;;;0.50;0.50;;;9.10;99.90;;;;;;5073035;28;21003;-76
2021/05/17 04:04:52;;;;;;;0.50;0.50;;;9.10;99.90;;;;;;5073459;28;20464;-76
2021/05/17 04:07:29;;;;;;;0.70;0.50;;;9.10;99.90;;;;;;5073460;28;20433;-75
2021/05/17 04:15:24;;;;;;;0.60;0.60;;;9.30;99.90;;;;;;5073475;28;20405;-76
2021/05/17 04:17:50;;;;;;;1.13;0.50;;;9.30;99.90;;;;;;5073290;28;20452;-74
2021/05/17 04:20:17;;;;;;;0.60;0.60;;;9.30;99.90;;;;;;5073219;28;20504;-77
2021/05/17 04:22:43;;;;;;;2.00;0.50;;;9.30;99.90;;;;;;5073202;28;20480;-75
2021/05/17 04:25:11;;;;;;;0.50;0.50;;;9.40;99.90;;;;;;5073210;28;20448;-75
2021/05/17 04:27:38;;;;;;;0.97;0.40;;;9.40;99.90;;;;;;5073191;28;20449;-75
2021/05/17 04:30:06;;;;;;;0.40;0.40;;;9.40;99.90;;;;;;5072809;28;20469;-75
2021/05/17 04:32:32;;;;;;;0.47;0.40;;;9.40;99.90;;;;;;5073160;28;20472;-75
2021/05/17 04:34:58;;;;;;;1.57;0.50;;;9.40;99.90;;;;;;5073175;28;20449;-75
2021/05/17 04:37:24;;;;;;;0.50;0.47;;;9.40;99.90;;;;;;5072782;28;20952;-75
2021/05/17 04:39:51;;;;;;;3.30;0.50;;;9.40;99.90;;;;;;5072767;28;20448;-74
2021/05/17 04:42:18;;;;;;;0.40;0.40;;;9.50;99.90;;;;;;5073003;28;20481;-75
2021/05/17 04:44:44;;;;;;;0.40;0.40;;;9.50;99.90;;;;;;5073046;28;20444;-75
2021/05/17 04:47:11;;;;;;;0.40;0.40;;;9.50;99.90;;;;;;5073005;28;20819;-75
2021/05/17 04:49:37;;;;;;;0.93;0.40;;;9.50;99.90;;;;;;5072895;28;20465;-75
2021/05/17 04:52:03;;;;;;;3.03;0.50;;;9.50;99.90;;;;;;5072926;28;20441;-75
2021/05/17 04:54:29;;;;;;;0.60;0.40;;;9.40;99.90;;;;;;5072638;28;20849;-76
2021/05/17 04:56:56;;;;;;;0.40;0.40;;;9.40;99.90;;;;;;5072898;28;20486;-75
2021/05/17 04:59:23;;;;;;;1.53;0.30;;;9.40;99.90;;;;;;5072522;28;20468;-75
2021/05/17 05:01:49;;;;;;;0.40;0.33;;;9.30;99.90;;;;;;5072776;28;20481;-74
2021/05/17 05:04:15;;;;;;;0.70;0.40;;;9.30;99.90;;;;;;5073535;28;20463;-75
2021/05/17 05:06:41;;;;;;;1.10;0.40;;;9.30;99.90;;;;;;5072826;28;20472;-74
2021/05/17 05:09:07;;;;;;;0.80;0.30;;;9.30;99.90;;;;;;5075351;28;20464;-75
2021/05/17 05:11:34;;;;;;;0.60;0.40;;;9.40;99.90;;;;;;5076335;28;20432;-75
2021/05/17 05:14:00;;;;;;;0.47;0.40;;;9.40;99.90;;;;;;5076467;28;20451;-74
2021/05/17 05:16:27;;;;;;;0.50;0.30;;;9.50;99.90;;;;;;5076446;28;20819;-75
2021/05/17 05:18:53;;;;;;;1.63;0.47;;;9.60;99.90;;;;;;5076309;28;20831;-74
2021/05/17 05:21:19;;;;;;;1.20;0.40;;;9.70;99.90;;;;;;5076029;28;20995;-75
2021/05/17 05:23:46;;;;;;;0.40;0.40;;;9.80;99.90;;;;;;5076287;28;20452;-75
2021/05/17 05:29:12;;;;;;;0.40;0.40;;;10.00;99.90;;;;;;5062897;28;20449;-75
2021/05/17 05:31:43;;;;;;;0.40;0.37;;;10.20;99.90;;;;;;5076192;28;20448;-75
2021/05/17 05:34:10;;;;;;;0.30;0.30;;;10.20;99.90;;;;;;5076059;28;20508;-75
2021/05/17 05:36:36;;;;;;;0.40;0.40;;;10.30;99.90;;;;;;5076077;28;20445;-75
2021/05/17 05:39:03;;;;;;;0.50;0.40;;;10.20;99.90;;;;;;5076009;28;20484;-75
2021/05/17 05:41:29;;;;;;;0.40;0.30;;;10.20;99.90;;;;;;5075993;28;20490;-75
2021/05/17 05:43:56;;;;;;;0.40;0.40;;;10.30;99.90;;;;;;5075596;28;20444;-75
2021/05/17 05:46:22;;;;;;;0.40;0.40;;;10.50;99.90;;;;;;5075913;28;20449;-74
2021/05/17 05:48:49;;;;;;;0.40;0.33;;;10.80;99.90;;;;;;5075802;28;20527;-74
2021/05/17 05:51:17;;;;;;;0.90;0.33;;;10.90;99.90;;;;;;5075563;28;21122;-75
2021/05/17 05:53:44;;;;;;;0.50;0.33;;;11.00;99.90;;;;;;5075794;28;20471;-75
2021/05/17 05:56:10;;;;;;;0.50;0.30;;;11.20;99.90;;;;;;5075681;28;20502;-75
2021/05/17 05:58:37;;;;;;;0.40;0.40;;;11.30;99.90;;;;;;5075339;28;20972;-75
2021/05/17 06:01:05;;;;;;;0.63;0.40;;;11.70;99.90;;;;;;5075315;28;20517;-75
2021/05/17 06:03:32;;;;;;;0.30;0.30;;;12.00;99.90;;;;;;5075615;28;20466;-75
2021/05/17 06:05:59;;;;;;;2.23;0.60;;;12.10;99.90;;;;;;5075269;28;20940;-74
2021/05/17 06:08:26;;;;;;;2.30;0.30;;;12.10;99.90;;;;;;5075195;28;20481;-75
2021/05/17 06:10:53;;;;;;;1.40;0.50;;;11.70;99.90;;;;;;5075007;28;20480;-75
2021/05/17 06:13:20;;;;;;;0.50;0.40;;;11.60;99.90;;;;;;5075391;28;20451;-75
2021/05/17 06:15:47;;;;;;;0.40;0.40;;;11.50;99.90;;;;;;5075391;28;20868;-75
2021/05/17 06:18:14;;;;;;;0.70;0.40;;;11.60;99.90;;;;;;5074807;28;20441;-75
2021/05/17 06:20:41;;;;;;;0.40;0.30;;;11.80;99.90;;;;;;5074901;28;20449;-75
2021/05/17 06:23:10;;;;;;;0.93;0.40;;;11.90;99.90;;;;;;5075167;28;20441;-74
2021/05/17 06:25:37;;;;;;;0.53;0.30;;;12.20;99.90;;;;;;5075144;28;20445;-76
2021/05/17 06:28:04;;;;;;;0.40;0.30;;;12.30;99.90;;;;;;5075066;28;20441;-75
2021/05/17 06:30:32;;;;;;;1.50;0.40;;;12.20;99.90;;;;;;5075076;28;20441;-75
2021/05/17 06:32:58;;;;;;;0.50;0.40;;;12.00;99.90;;;;;;5074933;28;20452;-75
2021/05/17 06:35:27;;;;;;;0.40;0.40;;;11.80;99.90;;;;;;5074948;28;20445;-75
2021/05/17 06:37:53;;;;;;;0.97;0.60;;;11.60;99.90;;;;;;5074807;28;20528;-76
2021/05/17 06:40:21;;;;;;;0.50;0.50;;;11.20;99.90;;;;;;5074688;28;20461;-76
2021/05/17 06:42:48;;;;;;;0.40;0.40;;;11.10;99.90;;;;;;5074738;28;20847;-76
2021/05/17 06:45:15;;;;;;;0.40;0.40;;;10.90;99.90;;;;;;5074754;28;20463;-75
2021/05/17 06:47:43;;;;;;;0.50;0.50;;;10.90;99.90;;;;;;5074494;28;20444;-77
2021/05/17 06:50:11;;;;;;;0.50;0.40;;;10.80;99.90;;;;;;5074884;28;20851;-76
2021/05/17 06:52:39;;;;;;;0.90;0.40;;;10.70;99.90;;;;;;5074393;28;20425;-77
2021/05/17 06:55:14;;;;;;;1.50;0.50;;;10.70;99.90;;;;;;5074257;28;20979;-76
2021/05/17 06:57:51;;;;;;;1.13;0.40;;;10.70;99.90;;;;;;5074587;28;20497;-77
2021/05/17 07:00:25;;;;;;;1.00;0.60;;;10.70;99.90;;;;;;5074640;28;20514;-76
2021/05/17 07:02:52;;;;;;;0.63;0.40;;;10.80;99.90;;;;;;5075171;28;20547;-76
2021/05/17 07:05:20;;;;;;;0.60;0.50;;;10.90;99.90;;;;;;5074093;28;20841;-76
2021/05/17 07:07:54;;;;;;;0.50;0.40;;;10.80;99.90;;;;;;5074317;28;20437;-76
2021/05/17 07:13:07;;;;;;;0.50;0.50;;;11.00;99.90;;;;;;5074020;28;20408;-76
2021/05/17 07:15:34;;;;;;;0.40;0.40;;;11.20;99.90;;;;;;5074184;28;20459;-76
2021/05/17 07:18:00;;;;;;;2.77;0.50;;;11.70;99.90;;;;;;5073662;28;20948;-76
2021/05/17 07:20:32;;;;;;;1.03;0.50;;;12.00;99.90;;;;;;5073814;28;20448;-76
2021/05/17 07:25:43;;;;;;;2.07;0.40;;;13.90;99.90;;;;;;5074075;28;20404;-76
2021/05/17 07:28:10;;;;;;;1.17;0.40;;;15.30;99.90;;;;;;5073545;28;20449;-76
2021/05/17 07:30:37;;;;;;;1.80;0.50;;;15.70;99.90;;;;;;5073109;28;20459;-76
2021/05/17 07:33:04;;;;;;;1.00;0.40;;;15.50;99.90;;;;;;5073847;28;20441;-76
2021/05/17 07:35:30;;;;;;;1.17;0.33;;;15.20;99.90;;;;;;5073854;28;20444;-76
2021/05/17 07:37:56;;;;;;;0.40;0.30;;;14.90;99.90;;;;;;5073596;28;20456;-76
2021/05/17 07:40:23;;;;;;;1.47;0.40;;;14.70;99.90;;;;;;5073686;28;20468;-76
2021/05/17 07:42:49;;;;;;;0.93;0.50;;;14.60;99.90;;;;;;5073613;28;20485;-76
2021/05/17 07:45:16;;;;;;;0.40;0.40;;;14.80;99.90;;;;;;5073632;28;20515;-76
2021/05/17 07:47:43;;;;;;;0.40;0.30;;;15.00;99.90;;;;;;5073652;28;20449;-76
2021/05/17 07:50:10;;;;;;;0.60;0.30;;;15.00;99.90;;;;;;5073615;28;20461;-76
2021/05/17 07:52:37;;;;;;;0.70;0.40;;;15.00;99.90;;;;;;5073623;28;20449;-76
2021/05/17 07:55:05;;;;;;;2.10;0.67;;;15.10;99.90;;;;;;5073200;28;20449;-76
2021/05/17 07:57:31;;;;;;;0.40;0.30;;;15.20;99.90;;;;;;5073516;28;20456;-76
2021/05/17 07:59:57;;;;;;;0.93;0.40;;;15.10;99.90;;;;;;5073395;28;20465;-76
2021/05/17 08:02:24;;;;;;;0.80;0.70;;;15.00;99.90;;;;;;5073347;28;20480;-76
2021/05/17 08:04:51;;;;;;;0.83;0.60;;;15.00;99.90;;;;;;5073384;28;20445;-76
2021/05/17 08:07:17;;;;;;;2.10;0.40;;;15.00;99.90;;;;;;5073082;28;20820;-76
2021/05/17 08:09:44;;;;;;;0.60;0.30;;;15.00;99.90;;;;;;5073015;28;20481;-76
2021/05/17 08:12:10;;;;;;;0.40;0.30;;;15.10;99.90;;;;;;5073347;28;20467;-76
2021/05/17 08:14:37;;;;;;;0.90;0.37;;;15.20;99.90;;;;;;5073328;28;20476;-76
2021/05/17 08:17:04;;;;;;;0.50;0.30;;;15.30;99.90;;;;;;5073318;28;20448;-76
2021/05/17 08:19:32;;;;;;;0.73;0.30;;;15.60;99.90;;;;;;5073298;28;20670;-76
2021/05/17 08:21:59;;;;;;;0.73;0.33;;;15.90;99.90;;;;;;5073125;28;20480;-76
2021/05/17 08:24:25;;;;;;;0.73;0.37;;;16.30;99.90;;;;;;5073225;28;20448;-76
2021/05/17 08:26:52;;;;;;;3.30;0.40;;;16.50;99.90;;;;;;5072952;28;20444;-76
2021/05/17 08:29:18;;;;;;;0.67;0.30;;;16.70;99.90;;;;;;5073185;28;20472;-76
2021/05/17 08:31:47;;;;;;;0.40;0.40;;;17.10;99.90;;;;;;5073191;28;20445;-76
2021/05/17 08:34:13;;;;;;;0.40;0.40;;;17.10;99.90;;;;;;5072829;28;20969;-77
2021/05/17 08:36:40;;;;;;;0.70;0.30;;;16.70;99.90;;;;;;5073116;28;20449;-76
2021/05/17 08:39:08;;;;;;;0.40;0.30;;;16.10;99.90;;;;;;5073032;28;20522;-76
2021/05/17 08:41:34;;;;;;;0.50;0.30;;;15.70;99.90;;;;;;5074022;28;20472;-77
2021/05/17 08:44:02;;;;;;;2.10;0.40;;;15.40;99.90;;;;;;5077156;28;20429;-76
2021/05/17 08:46:28;;;;;;;0.47;0.40;;;15.20;99.90;;;;;;5076864;28;20920;-77
2021/05/17 08:48:55;;;;;;;0.40;0.40;;;14.90;99.90;;;;;;5076944;28;20469;-76
2021/05/17 08:51:25;;;;;;;1.37;0.40;;;14.70;99.90;;;;;;5076991;28;20425;-76
2021/05/17 08:53:53;;;;;;;0.57;0.40;;;14.40;99.90;;;;;;5076760;28;20519;-76
2021/05/17 08:56:21;;;;;;;0.50;0.40;;;14.20;99.90;;;;;;5076615;28;20444;-76
2021/05/17 08:58:48;;;;;;;0.40;0.30;;;14.00;99.90;;;;;;5076379;28;21003;-76
2021/05/17 09:01:15;;;;;;;1.37;0.40;;;14.10;99.90;;;;;;5076680;28;20429;-76
2021/05/17 09:03:41;;;;;;;2.20;0.40;;;14.20;99.90;;;;;;5076659;28;20436;-76
2021/05/17 09:06:08;;;;;;;0.40;0.30;;;14.20;99.90;;;;;;5076154;28;20904;-76
2021/05/17 09:08:41;;;;;;;1.07;0.40;;;14.20;99.90;;;;;;5076189;28;21041;-76
2021/05/17 09:11:08;;;;;;;0.40;0.30;;;14.20;99.90;;;;;;5075940;28;20472;-76
2021/05/17 09:13:34;;;;;;;1.13;0.37;;;14.20;99.90;;;;;;5076442;28;20420;-76
2021/05/17 09:16:01;;;;;;;2.60;0.50;;;14.30;99.90;;;;;;5075852;28;20908;-76
2021/05/17 09:18:30;;;;;;;0.40;0.40;;;14.30;99.90;;;;;;5076007;28;20980;-76
2021/05/17 09:20:59;;;;;;;0.43;0.40;;;14.10;99.90;;;;;;5076046;28;20865;-76
2021/05/17 09:23:27;;;;;;;0.53;0.40;;;13.90;99.90;;;;;;5076217;28;20478;-76
2021/05/17 09:26:07;;;;;;;1.63;0.40;;;13.70;99.90;;;;;;5076197;28;20457;-76
2021/05/17 09:28:36;;;;;;;2.53;0.40;;;13.40;99.90;;;;;;5075989;28;20557;-76
2021/05/17 09:31:05;;;;;;;0.80;0.40;;;13.20;99.90;;;;;;5076070;28;20999;-77
2021/05/17 09:33:40;;;;;;;1.23;0.53;;;13.20;99.90;;;;;;5076024;28;20784;-77
2021/05/17 09:36:07;;;;;;;0.50;0.50;;;13.50;99.90;;;;;;5075967;28;20455;-77
2021/05/17 09:38:34;;;;;;;1.10;1.10;;;13.80;99.90;;;;;;5075948;28;20481;-77
2021/05/17 09:41:03;;;;;;;0.80;0.50;;;14.10;99.90;;;;;;5075820;28;20433;-77
2021/05/17 09:43:30;;;;;;;0.70;0.50;;;14.10;99.90;;;;;;5075609;28;20412;-77
2021/05/17 09:45:57;;;;;;;1.13;0.50;;;14.00;99.90;;;;;;5075501;28;20908;-77
2021/05/17 09:48:25;;;;;;;1.33;0.40;;;13.90;99.90;;;;;;5075777;28;20469;-77
2021/05/17 09:51:00;;;;;;;0.60;0.50;;;13.80;99.90;;;;;;5075477;28;20934;-77
2021/05/17 09:53:28;;;;;;;0.60;0.40;;;13.70;99.90;;;;;;5074550;28;20802;-77
2021/05/17 09:55:55;;;;;;;0.60;0.40;;;13.70;99.90;;;;;;5075811;28;20433;-78
2021/05/17 09:58:43;;;;;;;1.23;0.40;;;13.80;99.90;;;;;;5075563;28;20476;-77
2021/05/17 10:01:13;;;;;;;0.40;0.30;;;13.80;99.90;;;;;;5069562;28;20457;-77
2021/05/17 10:03:43;;;;;;;0.80;0.50;;;14.10;99.90;;;;;;5075554;28;20478;-77
2021/05/17 10:06:11;;;;;;;1.87;0.40;;;14.60;99.90;;;;;;5075495;28;20437;-77
2021/05/17 10:08:38;;;;;;;1.07;0.50;;;15.00;99.90;;;;;;5075430;28;20483;-76
2021/05/17 10:11:05;;;;;;;1.10;0.60;;;15.00;99.90;;;;;;5074984;28;20972;-77
2021/05/17 10:13:34;;;;;;;0.47;0.40;;;14.80;99.90;;;;;;5075731;28;20804;-76
2021/05/17 10:16:03;;;;;;;0.70;0.40;;;14.60;99.90;;;;;;5075070;28;20417;-76
2021/05/17 10:18:30;;;;;;;0.57;0.50;;;14.20;99.90;;;;;;5075244;28;20472;-76
2021/05/17 10:20:57;;;;;;;1.27;0.40;;;14.00;99.90;;;;;;5074964;28;20434;-76
2021/05/17 10:23:25;;;;;;;0.70;0.40;;;13.90;99.90;;;;;;5075231;28;20475;-76
2021/05/17 10:25:52;;;;;;;0.60;0.40;;;13.80;99.90;;;;;;5075285;28;20799;-76
2021/05/17 10:28:22;;;;;;;0.50;0.50;;;13.80;99.90;;;;;;5075197;28;20465;-76
2021/05/17 10:30:49;;;;;;;0.50;0.40;;;13.90;99.90;;;;;;5075125;28;20429;-76
2021/05/17 10:33:19;;;;;;;0.43;0.43;;;14.00;99.90;;;;;;5075124;28;20437;-76
2021/05/17 10:35:52;;;;;;;2.40;0.60;;;14.50;99.90;;;;;;5075072;28;20494;-76
2021/05/17 10:38:25;;;;;;;0.40;0.40;;;15.00;99.90;;;;;;5074627;28;20429;-76
2021/05/17 10:40:57;;;;;;;2.53;0.50;;;15.30;99.90;;;;;;5075209;28;20437;-77
2021/05/17 10:43:54;;;;;;;2.53;0.50;;;15.60;99.90;;;;;;5074825;28;20475;-77
2021/05/17 10:46:38;;;;;;;1.23;0.40;;;15.40;99.90;;;;;;5074857;28;20439;-77
2021/05/17 10:49:22;;;;;;;0.80;0.70;;;15.10;99.90;;;;;;5074702;28;20534;-76
2021/05/17 10:51:51;;;;;;;1.47;0.53;;;14.90;99.90;;;;;;5074388;28;20927;-76
2021/05/17 10:54:22;;;;;;;0.50;0.40;;;14.80;99.90;;;;;;5074397;28;20803;-77
2021/05/17 10:56:54;;;;;;;0.43;0.40;;;14.70;99.90;;;;;;5074300;28;20429;-76
2021/05/17 11:02:11;;;;;;;1.70;0.50;;;14.50;99.90;;;;;;5074222;28;20464;-76
2021/05/17 11:04:39;;;;;;;0.57;0.50;;;14.50;99.90;;;;;;5074482;28;20421;-76
2021/05/17 11:07:19;;;;;;;0.67;0.40;;;14.60;99.90;;;;;;5074120;28;20429;-77
2021/05/17 11:09:55;;;;;;;1.10;0.40;;;14.70;99.90;;;;;;5074043;28;20480;-77
2021/05/17 11:12:57;;;;;;;0.40;0.40;;;14.90;99.90;;;;;;5074277;28;20486;-77
2021/05/17 11:15:44;;;;;;;1.17;0.40;;;15.10;99.90;;;;;;5074323;28;20429;-76
2021/05/17 11:18:39;;;;;;;0.83;0.63;;;15.00;99.90;;;;;;5074141;28;20832;-76
2021/05/17 11:21:10;;;;;;;1.07;0.47;;;14.80;99.90;;;;;;5074185;28;20448;-77
2021/05/17 11:24:02;;;;;;;0.70;0.50;;;14.50;99.90;;;;;;5073774;28;20548;-77
2021/05/17 11:26:31;;;;;;;3.50;0.50;;;14.20;99.90;;;;;;5073754;28;20490;-77
2021/05/17 11:29:06;;;;;;;0.50;0.40;;;13.90;99.90;;;;;;5073981;28;20564;-77
2021/05/17 11:31:46;;;;;;;0.87;0.53;;;13.70;99.90;;;;;;5073999;28;20429;-77
2021/05/17 11:34:18;;;;;;;0.60;0.40;;;13.90;99.90;;;;;;5073888;28;20847;-77
2021/05/17 11:36:47;;;;;;;1.23;0.50;;;13.90;99.90;;;;;;5073921;28;20429;-77
2021/05/17 11:39:19;;;;;;;1.80;0.40;;;13.80;99.90;;;;;;5073729;28;20500;-77
2021/05/17 11:41:49;;;;;;;0.40;0.40;;;13.80;99.90;;;;;;5074070;28;20544;-77
2021/05/17 11:44:19;;;;;;;0.40;0.40;;;13.90;99.90;;;;;;5073553;28;20833;-76
2021/05/17 11:46:49;;;;;;;0.40;0.30;;;14.20;99.90;;;;;;5073787;28;20578;-77
2021/05/17 11:49:18;;;;;;;3.03;0.30;;;14.40;99.90;;;;;;5073544;28;20465;-77
2021/05/17 11:51:47;;;;;;;1.23;0.30;;;14.60;99.90;;;;;;5073615;28;20436;-77
2021/05/17 11:54:13;;;;;;;0.40;0.30;;;14.80;99.90;;;;;;5073265;28;20969;-77
2021/05/17 11:56:42;;;;;;;0.93;0.30;;;14.80;99.90;;;;;;5073592;28;20494;-78
2021/05/17 11:59:11;;;;;;;0.43;0.30;;;14.70;99.90;;;;;;5073143;28;20465;-77
2021/05/17 12:01:39;;;;;;;0.40;0.30;;;14.80;99.90;;;;;;5073103;28;20837;-77
2021/05/17 12:04:20;;;;;;;0.50;0.30;;;14.90;99.90;;;;;;5073069;28;20940;-77
2021/05/17 12:06:49;;;;;;;0.40;0.30;;;14.70;99.90;;;;;;5073181;28;20990;-77
2021/05/17 12:09:32;;;;;;;0.30;0.30;;;14.70;99.90;;;;;;5073117;28;20489;-77
2021/05/17 12:12:02;;;;;;;0.30;0.30;;;14.70;99.90;;;;;;5073431;28;20425;-77
2021/05/17 12:14:30;;;;;;;1.33;0.30;;;14.70;99.90;;;;;;5073362;28;20445;-77
2021/05/17 12:17:08;;;;;;;0.60;0.50;;;14.80;99.90;;;;;;5072863;28;20444;-76
2021/05/17 12:19:34;;;;;;;0.93;0.40;;;14.90;99.90;;;;;;5072967;28;20465;-77
2021/05/17 12:22:05;;;;;;;0.50;0.30;;;15.10;99.90;;;;;;5073040;28;20473;-77
2021/05/17 12:24:32;;;;;;;0.50;0.30;;;15.10;99.90;;;;;;5073004;28;20771;-77
2021/05/17 12:27:02;;;;;;;0.73;0.30;;;15.10;99.90;;;;;;5072860;28;20456;-77
2021/05/17 12:29:47;;;;;;;0.40;0.40;;;15.20;99.90;;;;;;5072733;28;20475;-82
2021/05/17 12:32:14;;;;;;;0.40;0.40;;;15.20;99.90;;;;;;5073171;28;20433;-82
2021/05/17 12:34:53;;;;;;;0.40;0.30;;;15.20;99.90;;;;;;5072906;28;20453;-82
2021/05/17 12:37:20;;;;;;;0.90;0.30;;;15.30;99.90;;;;;;5073812;28;20452;-82
2021/05/17 12:40:26;;;;;;;0.80;0.30;;;15.40;99.90;;;;;;5071486;28;20514;-82
2021/05/17 12:43:09;;;;;;;0.97;0.40;;;15.40;99.90;;;;;;5073166;28;20579;-82
2021/05/17 12:45:38;;;;;;;0.30;0.30;;;15.60;99.90;;;;;;5072760;28;20417;-82
2021/05/17 12:48:09;;;;;;;0.33;0.27;;;15.60;99.90;;;;;;5072683;28;20456;-82
2021/05/17 12:50:36;;;;;;;0.40;0.30;;;15.70;99.90;;;;;;5073026;28;20433;-82
2021/05/17 12:53:08;;;;;;;0.40;0.33;;;15.70;99.90;;;;;;5072595;28;20441;-82
2021/05/17 12:55:40;;;;;;;4.63;0.30;;;15.80;99.90;;;;;;5073394;28;20437;-82
2021/05/17 12:58:09;;;;;;;0.40;0.30;;;15.80;99.90;;;;;;5073151;28;20805;-82
2021/05/17 13:00:48;;;;;;;0.40;0.30;;;15.90;99.90;;;;;;5073640;28;20482;-82
2021/05/17 13:03:18;;;;;;;0.80;0.40;;;15.90;99.90;;;;;;5072447;28;20495;-81
2021/05/17 13:06:01;;;;;;;1.07;0.40;;;15.90;99.90;;;;;;5072775;28;20455;-82
2021/05/17 13:08:44;;;;;;;0.33;0.30;;;15.80;99.90;;;;;;5072570;28;21008;-82
2021/05/17 13:11:11;;;;;;;0.43;0.40;;;15.70;99.90;;;;;;5204967;22;20580;-75
2021/05/17 13:16:06;;;;;;;0.30;0.30;;;15.40;99.90;;;;;;5590778;22;20469;-82
2021/05/17 13:19:03;;;;;;;0.40;0.30;;;15.40;99.90;;;;;;5436758;22;20484;-80
2021/05/17 13:21:37;;;;;;;0.30;0.30;;;15.30;99.90;;;;;;5072654;28;21042;-80